Henry Henderson

Chefscout - Newcastle United
4 Jun 2028
Sonntag
Verarbeitung

Persönlichkeit

Anpassungsfähigkeit (1) Ehrgeiz (1) Kontroverse (8) Loyalität (5) Druck (18) Professionalität (3) Fairness (3) Temperament (14)

Profil

Trainerstil Demokratisch
Lizenz Nationale B
Entschlossenheit 9
Menschenführung 9
Motivation 13
Disziplin 11
Arbeitszufriedenheit
100%
Ermüdung
0%
Rolle Chefscout
Gehalt 90.4K p/W
Vertrag 14.03.2030

Leistung

Verhalten Gut
Trainingseffektivität
56%
Spielerentwicklung
70%
Verletzungsprävention
60%
Taktische Umsetzung
80%

Letzte Ereignisse

Spieler begutachtet jetzt
Legte dem Vorstand ein Dossier vor jetzt

Aktuell beobachtet

95
Spieler Verein Status Fähigkeit Vertrauen Beobachtet Zuletzt beobachtet Letzte Stimme
Dom Ballard Leyton Orient Aktiv 119 / 124 40% 1 01.06.2028 -
Gonzalo Fulham Aktiv 145 / 147 40% 1 01.06.2028 -
Harry Leonard Peterborough United Aktiv 114 / 120 40% 1 01.06.2028 -
Rodrigo Mora AS Roma Aktiv 135 / 153 40% 2 24.01.2028 -
Cundo Leicester City Aktiv 141 / 142 40% 2 24.01.2028 -
Bahmed Deuff FC Metz Aktiv 124 / 129 40% 1 24.01.2028 -
Jorrel Hato Chelsea Aktiv 144 / 162 40% 5 17.01.2028 -
Lewis Miley Leicester City Aktiv 144 / 152 40% 2 14.01.2028 -
Henrique Carmo CSKA Moscow Aktiv 129 / 129 40% 1 12.01.2028 -
Ibrahim Fullah Charlton Athletic Aktiv 125 / 131 40% 1 11.01.2028 -
Oscar Schwartau Norwich City Aktiv 137 / 134 40% 1 11.01.2028 -
Izan Merino Málaga Aktiv 124 / 133 40% 1 11.01.2028 -
Flávio Gonçalves Sporting CP Aktiv 132 / 134 40% 1 10.01.2028 -
Ronan Kpakio Cardiff City Aktiv 114 / 131 40% 2 06.01.2028 -
Edmund Baidoo Borussia Dortmund Aktiv 136 / 132 40% 5 04.01.2028 -
Micah Mbick Charlton Athletic Aktiv 106 / 120 40% 1 03.01.2028 -
Pablo Felipe West Ham United Aktiv 144 / 145 40% 3 01.01.2028 -
Agustín Ruberto River Plate Aktiv 117 / 121 40% 1 01.01.2028 -
Ollie Scarles West Ham United Aktiv 133 / 141 40% 16 31.08.2027 -
Babis Kostoulas Brighton Aktiv 140 / 149 40% 4 31.08.2027 -
Noah Streit CF Montreal Aktiv 126 / 126 40% 5 31.08.2027 -
Franco Minerva Platense Verloren 115 / 125 40% 1 31.08.2027 -
Geovany Quenda Chelsea Aktiv 144 / 157 40% 2 27.08.2027 -
Ayyoub Bouaddi Manchester City Aktiv 150 / 156 40% 2 26.08.2027 Mehr Infos nötig
Nicolás Barros Schelotto Gimnasia La Plata Aktiv 121 / 130 40% 2 26.08.2027 -
Rio Ngumoha Brentford Aktiv 146 / 144 40% 2 24.08.2027 -
Konstantinos Karetsas Borussia Dortmund Aktiv 120 / 130 40% 2 23.08.2027 -
Elias Baum Eintracht Frankfurt Aktiv 130 / 138 40% 3 22.08.2027 -
Teo Rodríguez Pagano San Lorenzo Aktiv 115 / 127 40% 2 21.08.2027 -
Jesús Rodríguez Como Aktiv 151 / 152 40% 1 20.08.2027 -
Assane Diao Como Aktiv 154 / 150 40% 1 19.08.2027 -
Christ Inao Oulaï Fiorentina Aktiv 144 / 143 40% 1 18.08.2027 -
Mattia Mannini Juve Stabia Aktiv 114 / 120 40% 1 17.08.2027 -
Jonathan Rowe Bologna Aktiv 133 / 142 40% 1 17.08.2027 -
Yoan Bonny Inter Aktiv 150 / 148 40% 1 17.08.2027 -
Will Lankshear Middlesbrough Aktiv 120 / 134 40% 1 15.08.2027 -
Tyreece Campbell Charlton Athletic Aktiv 117 / 124 40% 5 14.08.2027 -
Wilfried Gnonto Leeds United Aktiv 140 / 144 40% 1 14.08.2027 -
Alysson Edward Aston Villa Aktiv 117 / 129 40% 4 11.08.2027 -
Rabby Nzingoula West Bromwich Albion Aktiv 116 / 130 40% 7 10.08.2027 -
George Abbott Tottenham Aktiv 117 / 130 40% 7 10.08.2027 -
Ben Gannon Doak Bournemouth Aktiv 153 / 148 40% 2 08.08.2027 -
Rayan Bournemouth Aktiv 149 / 140 40% 5 07.08.2027 -
Lautaro Millán Independiente Aktiv 113 / 131 40% 3 07.08.2027 -
Claudio Echeverri Manchester City Aktiv 129 / 139 40% 1 07.08.2027 -
Pablo Ruan Nacional Aktiv 113 / 113 40% 1 07.08.2027 -
Axel Tape Bayer Leverkusen Aktiv 123 / 133 40% 10 04.08.2027 -
Souza Tottenham Aktiv 138 / 132 40% 10 03.08.2027 Beobachten
Vitor Reis Manchester City Aktiv 133 / 144 40% 1 01.08.2027 -
Richard Koné Queens Park Rangers Aktiv 119 / 122 40% 2 31.07.2027 -
David Romero Parma Aktiv 135 / 132 40% 2 31.07.2027 -
Joseph Opoku Swansea City Aktiv 115 / 132 40% 2 29.07.2027 -
Miro Everton Aktiv 114 / 123 40% 1 29.07.2027 -
Nəriman Axundzadə Tottenham Aktiv 132 / 131 40% 1 28.07.2027 -
Eren Aydın Zira Aktiv 99 / 106 40% 1 28.07.2027 -
Mohamadou Kanté West Ham United Aktiv 123 / 128 40% 5 27.07.2027 -
Ezra Mayers West Ham United Aktiv 114 / 125 40% 2 24.07.2027 -
Jaydee Canvot Crystal Palace Aktiv 135 / 144 40% 9 23.07.2027 -
Bruno Cabrera Lanús Aktiv 121 / 115 40% 1 23.07.2027 -
Robinio Vaz AS Roma Aktiv 115 / 129 40% 1 23.07.2027 -
Ishé Samuels-Smith Chelsea Aktiv 117 / 131 40% 2 20.07.2027 -
Matheus Gonçalves Al-Ahli Aktiv 141 / 139 40% 2 18.07.2027 -
Olti Hyseni Brondby Aktiv 110 / 119 40% 4 12.07.2027 -
Rafik el Arguioui Utrecht Aktiv 115 / 120 40% 1 12.07.2027 -
Niccolò Fortini Fiorentina Aktiv 127 / 134 40% 1 07.07.2027 -
Kirill Glebov CSKA Moscow Aktiv 123 / 131 40% 1 06.07.2027 -
Kento Shiogai VfL Wolfsburg Aktiv 118 / 126 40% 1 30.06.2027 -
Dylan Gorosito Boca Juniors Aktiv 104 / 125 40% 2 27.06.2027 -
Yasin Özcan Aston Villa Aktiv 111 / 117 40% 2 19.06.2027 -
Marius Courcoul Olympique de Marseille Aktiv 110 / 124 40% 3 18.06.2027 -
Finn Jeltsch VfB Stuttgart Aktiv 138 / 143 40% 3 17.06.2027 -
Matija Frigan Parma Aktiv 130 / 122 40% 1 17.06.2027 -
Kelvin Flórez Udinese Aktiv 120 / 118 40% 1 16.06.2027 -
Gonçalo Sousa Porto Aktiv 115 / 120 40% 1 13.06.2027 -
Daniel Kelly West Ham United Aktiv 122 / 121 40% 1 06.06.2027 -
Đorđe Petrović Bournemouth Aktiv 146 / 148 40% 1 02.06.2027 -
Lorenzo Colombo Genoa Aktiv 143 / 137 40% 1 30.01.2027 -
Jan Ziółkowski AS Roma Aktiv 116 / 131 40% 1 27.01.2027 -
Ignacio Perruzzi San Lorenzo Aktiv 114 / 134 40% 3 26.01.2027 -
Andri Guðjohnsen Blackburn Rovers Aktiv 118 / 121 40% 1 20.01.2027 -
Juan Pablo De la Reta Maipú Aktiv 110 / 124 40% 1 13.01.2027 -
Fábio Carvalho Brentford Aktiv 134 / 143 40% 1 07.01.2027 -
Jeong Sang-Bin St. Louis CITY SC Aktiv 127 / 118 40% 1 02.01.2027 -
Marezi Portsmouth Aktiv 117 / 128 40% 1 02.01.2027 -
Jocelin Ta Bi Sunderland Aktiv 109 / 116 40% 1 30.08.2026 -
Eliás Montiel Athletic Bilbao Aktiv 122 / 134 40% 1 30.08.2026 -
Antoni Milambo Brentford Aktiv 141 / 135 40% 1 29.08.2026 -
Luís Guilherme Sporting CP Aktiv 118 / 130 40% 1 24.08.2026 -
Christopher Bonsu Baah Al-Qadisiyah Aktiv 115 / 113 40% 1 21.08.2026 -
Iván Fresneda Sporting CP Aktiv 138 / 146 40% 1 19.08.2026 -
Givairo Read Feyenoord Aktiv 146 / 142 40% 1 19.08.2026 -
Bobby Clark Derby County Aktiv 128 / 122 40% 1 16.08.2026 -
Elías Báez Atlanta United FC Aktiv 126 / 120 40% 1 13.08.2026 -
Mauricio Amaro Atlanta United FC Aktiv 126 / 128 40% 1 06.08.2026 -
Caleb Yirenkyi Coventry City Aktiv 124 / 132 40% 1 05.08.2026 -